KDPA/DPA METAR and TAF weather

Enter ICAO airport designator
Station Type Date Time Source
KDPA METAR 2019/08/25 12:52 UTC NOAA

KDPA 251252Z 09003KT 10SM BKN055 17/12 A3015 RMK AO2 SLP209 T01670122


Station Type Date Time Source
KDPA Decoded METAR 2019/08/25 12:52 UTC NOAA

Station name not available
Aug 25, 2019 - 08:52 AM EDT / 2019.08.25 1252 UTC
Wind: from the E (090 degrees) at 3 MPH (3 KT):0
Visibility: 10 mile(s):0
Sky conditions: mostly cloudy
Temperature: 62.1 F (16.7 C)
Dew Point: 54.0 F (12.2 C)
Relative Humidity: 74%
Pressure (altimeter): 30.15 in. Hg (1020 hPa)
ob: KDPA 251252Z 09003KT 10SM BKN055 17/12 A3015 RMK AO2 SLP209 T01670122
cycle: 13

Station Type Date Time Source
KDPA TAF 2019/08/25 12:34 UTC NOAA

TAF KDPA 251132Z 2512/2612 10007KT P6SM FEW045 SCT250
FM251700 11011KT P6SM FEW050 BKN200
FM260700 11006KT P6SM VCSH BKN050 PROB30 2608/2612 5SM -SHRA

Example: see airport list